DNKN

Mallam Aminu International Airport

Kano, Nigeria
METAR DNKN 191900Z 22016KT 9999 BKN013 FEW020CB 30/14 Q1012 NOSIG
Observed Flight Rules
Jun-19 @ 19:00 UTC (an hour ago) Marginal Visual Flight Rules
Wind Visibility Clouds
220° at 16 knots 10,000+ meters
  • Broken at 1,300' AGL
  • Few at 2,000' AGL
Temperatures Readings
Current 30°C / 86°F
Dewpoint 14°C / 57°F
Humidity 38%
Altimeter 29.88" Hg
Pressure 1012 hPa
Elevation 481
METAR DNKN 191900Z 22016KT 9999 BKN013 FEW020CB 30/14 Q1012 NOSIG
Observed Flight Rules
Jun-19 @ 19:00 UTC
(an hour ago)
MVFR
Wind Visibility
220° at 16 knots 10,000+ meters
Clouds
  • Broken at 1,300' AGL
  • Few at 2,000' AGL
Temperature Dewpoint
30°C / 86°F 14°C / 57°F
Humidity Altimeter Pressure
38% 29.88" Hg 1012 hPa